KBQK/BQK METAR and TAF weather

Enter ICAO airport designator
Station Type Date Time Source
KBQK METAR 2018/07/21 11:35 UTC NOAA

KBQK 211135Z AUTO 00000KT 1 1/2SM BR OVC002 23/22 A2991 RMK AO2


Station Type Date Time Source
KBQK Decoded METAR 2018/07/21 11:35 UTC NOAA

Brunswick / Glynco, GA, United States (KBQK) 31-15N 081-28W
Jul 21, 2018 - 07:35 AM EDT / 2018.07.21 1135 UTC
Wind: Calm:0
Visibility: 1 1/2 mile(s):0
Sky conditions: overcast
Weather: mist
Temperature: 73 F (23 C)
Dew Point: 71 F (22 C)
Relative Humidity: 94%
Pressure (altimeter): 29.91 in. Hg (1012 hPa)
ob: KBQK 211135Z AUTO 00000KT 1 1/2SM BR OVC002 23/22 A2991 RMK AO2
cycle: 11

Station Type Date Time Source
KBQK TAF UTC NOAA

Error!


Example: see airport list